Time,TemperatureF,DewpointF,PressureIn,WindDirection,WindDirectionDegrees,WindSpeedMPH,WindSpeedGustMPH,Humidity,HourlyPrecipIn,Conditions,Clouds,dailyrainin,SolarRadiationWatts/m^2,SoftwareType,DateUTC
2013-02-28 00:21:00,11.0,-2.0,-100.00,East,82,5.0,7.0,56,0.00,,,0.02,1.000000,,2013-02-28 07:21:00,
2013-02-28 00:31:00,11.0,-2.0,-100.00,East,82,5.0,7.0,56,0.00,,,0.02,1.000000,,2013-02-28 07:31:00,
2013-02-28 00:41:00,11.0,-2.0,-100.00,East,82,5.0,7.0,56,0.00,,,0.02,1.000000,,2013-02-28 07:41:00,
2013-02-28 00:51:00,11.0,-2.0,-100.00,East,82,5.0,7.0,56,0.00,,,0.02,1.000000,,2013-02-28 07:51:00,
2013-02-28 01:22:00,9.0,-1.0,-100.00,ENE,68,4.0,6.0,63,0.00,,,0.02,1.000000,,2013-02-28 08:22:00,
2013-02-28 01:32:00,9.0,-1.0,-100.00,ENE,68,4.0,6.0,63,0.00,,,0.02,1.000000,,2013-02-28 08:32:00,
2013-02-28 01:42:00,9.0,-1.0,-100.00,ENE,68,4.0,6.0,63,0.00,,,0.02,1.000000,,2013-02-28 08:42:00,
2013-02-28 01:52:00,9.0,-1.0,-100.00,ENE,68,4.0,6.0,63,0.00,,,0.02,1.000000,,2013-02-28 08:52:00,
2013-02-28 02:21:00,8.0,-3.0,-100.00,ENE,63,5.0,6.0,60,0.00,,,0.02,1.000000,,2013-02-28 09:21:00,
2013-02-28 02:32:00,8.0,-3.0,-100.00,ENE,63,5.0,6.0,60,0.00,,,0.02,1.000000,,2013-02-28 09:32:00,
2013-02-28 02:41:00,8.0,-3.0,-100.00,ENE,63,5.0,6.0,60,0.00,,,0.02,1.000000,,2013-02-28 09:41:00,
2013-02-28 02:52:00,8.0,-3.0,-100.00,ENE,63,5.0,6.0,60,0.00,,,0.02,1.000000,,2013-02-28 09:52:00,
2013-02-28 03:21:00,7.0,-3.0,-100.00,ENE,68,2.0,5.0,64,0.00,,,0.02,1.000000,,2013-02-28 10:21:00,
2013-02-28 03:32:00,7.0,-3.0,-100.00,ENE,68,2.0,5.0,64,0.00,,,0.02,1.000000,,2013-02-28 10:32:00,
2013-02-28 03:42:00,7.0,-3.0,-100.00,ENE,68,2.0,5.0,64,0.00,,,0.02,1.000000,,2013-02-28 10:42:00,
2013-02-28 03:51:00,7.0,-3.0,-100.00,ENE,68,2.0,5.0,64,0.00,,,0.02,1.000000,,2013-02-28 10:51:00,
2013-02-28 04:21:00,6.0,-4.0,-100.00,NE,46,4.0,6.0,64,0.00,,,0.02,1.000000,,2013-02-28 11:21:00,
2013-02-28 04:32:00,6.0,-4.0,-100.00,NE,46,4.0,6.0,64,0.00,,,0.02,1.000000,,2013-02-28 11:32:00,
2013-02-28 04:42:00,6.0,-4.0,-100.00,NE,46,4.0,6.0,64,0.00,,,0.02,1.000000,,2013-02-28 11:42:00,
2013-02-28 04:52:00,6.0,-4.0,-100.00,NE,46,4.0,6.0,64,0.00,,,0.02,1.000000,,2013-02-28 11:52:00,
2013-02-28 05:21:00,4.0,-4.0,-100.00,ENE,66,2.0,8.0,70,0.00,,,0.02,1.000000,,2013-02-28 12:21:00,
2013-02-28 05:32:00,4.0,-4.0,-100.00,ENE,66,2.0,8.0,70,0.00,,,0.02,1.000000,,2013-02-28 12:32:00,
2013-02-28 05:42:00,4.0,-4.0,-100.00,ENE,66,2.0,8.0,70,0.00,,,0.02,1.000000,,2013-02-28 12:42:00,
2013-02-28 05:52:00,4.0,-4.0,-100.00,ENE,66,2.0,8.0,70,0.00,,,0.02,1.000000,,2013-02-28 12:52:00,
2013-02-28 06:21:00,5.0,-3.0,-100.00,East,88,3.0,5.0,68,0.00,,,0.02,1.000000,,2013-02-28 13:21:00,
2013-02-28 06:32:00,5.0,-3.0,-100.00,East,88,3.0,5.0,68,0.00,,,0.02,1.000000,,2013-02-28 13:32:00,
2013-02-28 06:42:00,5.0,-3.0,-100.00,East,88,3.0,5.0,68,0.00,,,0.02,1.000000,,2013-02-28 13:42:00,
2013-02-28 06:52:00,5.0,-3.0,-100.00,East,88,3.0,5.0,68,0.00,,,0.02,1.000000,,2013-02-28 13:52:00,
2013-02-28 07:21:00,5.0,-4.0,-100.00,NE,55,4.0,5.0,67,0.00,,,0.02,2.000000,,2013-02-28 14:21:00,
2013-02-28 07:32:00,5.0,-4.0,-100.00,NE,55,4.0,5.0,67,0.00,,,0.02,2.000000,,2013-02-28 14:32:00,
2013-02-28 07:42:00,5.0,-4.0,-100.00,NE,55,4.0,5.0,67,0.00,,,0.02,2.000000,,2013-02-28 14:42:00,
2013-02-28 07:52:00,5.0,-4.0,-100.00,NE,55,4.0,5.0,67,0.00,,,0.02,2.000000,,2013-02-28 14:52:00,
2013-02-28 08:21:00,13.0,0.0,-100.00,ENE,58,3.0,6.0,56,0.00,,,0.02,35.000000,,2013-02-28 15:21:00,
2013-02-28 08:32:00,13.0,0.0,-100.00,ENE,58,3.0,6.0,56,0.00,,,0.02,35.000000,,2013-02-28 15:32:00,
2013-02-28 08:41:00,13.0,0.0,-100.00,ENE,58,3.0,6.0,56,0.00,,,0.02,35.000000,,2013-02-28 15:41:00,
2013-02-28 08:52:00,13.0,0.0,-100.00,ENE,58,3.0,6.0,56,0.00,,,0.02,35.000000,,2013-02-28 15:52:00,
2013-02-28 09:22:00,25.0,-1.0,-100.00,East,79,4.0,8.0,31,0.00,,,0.02,166.000000,,2013-02-28 16:22:00,
2013-02-28 10:41:00,32.0,-2.0,-100.00,ENE,64,6.0,10.0,23,0.00,,,0.02,483.000000,,2013-02-28 17:41:00,
2013-02-28 10:52:00,32.0,-2.0,-100.00,ENE,64,6.0,10.0,23,0.00,,,0.02,483.000000,,2013-02-28 17:52:00,
2013-02-28 11:22:00,38.0,1.0,-100.00,SE,130,3.0,10.0,20,0.00,,,0.01,644.000000,,2013-02-28 18:22:00,
2013-02-28 11:42:00,38.0,1.0,-100.00,SE,130,3.0,10.0,20,0.00,,,0.01,644.000000,,2013-02-28 18:42:00,
2013-02-28 12:21:00,39.0,4.0,-100.00,WNW,295,3.0,9.0,23,0.00,,,0.00,749.000000,,2013-02-28 19:21:00,
2013-02-28 12:32:00,39.0,4.0,-100.00,WNW,295,3.0,9.0,23,0.00,,,0.00,749.000000,,2013-02-28 19:32:00,
2013-02-28 12:41:00,39.0,4.0,-100.00,WNW,295,3.0,9.0,23,0.00,,,0.00,749.000000,,2013-02-28 19:41:00,
2013-02-28 12:51:00,39.0,4.0,-100.00,WNW,295,3.0,9.0,23,0.00,,,0.00,749.000000,,2013-02-28 19:51:00,
2013-02-28 13:21:00,40.0,6.0,-100.00,WNW,297,4.0,9.0,24,0.00,,,0.00,786.000000,,2013-02-28 20:21:00,
2013-02-28 13:32:00,40.0,6.0,-100.00,WNW,297,4.0,9.0,24,0.00,,,0.00,786.000000,,2013-02-28 20:32:00,
2013-02-28 13:41:00,40.0,6.0,-100.00,WNW,297,4.0,9.0,24,0.00,,,0.00,786.000000,,2013-02-28 20:41:00,
2013-02-28 13:52:00,40.0,6.0,-100.00,WNW,297,4.0,9.0,24,0.00,,,0.00,786.000000,,2013-02-28 20:52:00,
2013-02-28 14:22:00,41.0,4.0,-100.00,West,269,4.0,8.0,21,0.00,,,0.00,760.000000,,2013-02-28 21:22:00,
2013-02-28 14:31:00,41.0,4.0,-100.00,West,269,4.0,8.0,21,0.00,,,0.00,760.000000,,2013-02-28 21:31:00,
2013-02-28 14:41:00,41.0,4.0,-100.00,West,269,4.0,8.0,21,0.00,,,0.00,760.000000,,2013-02-28 21:41:00,
2013-02-28 14:51:00,41.0,4.0,-100.00,West,269,4.0,8.0,21,0.00,,,0.00,760.000000,,2013-02-28 21:51:00,
2013-02-28 15:21:00,37.0,4.0,-100.00,West,278,4.0,9.0,24,0.00,,,-99.99,551.000000,,2013-02-28 22:21:00,
2013-02-28 15:32:00,37.0,4.0,-100.00,West,278,4.0,9.0,24,0.00,,,-99.99,551.000000,,2013-02-28 22:32:00,
2013-02-28 15:41:00,37.0,4.0,-100.00,West,278,4.0,9.0,24,0.00,,,-99.99,551.000000,,2013-02-28 22:41:00,
2013-02-28 15:52:00,37.0,4.0,-100.00,West,278,4.0,9.0,24,0.00,,,-99.99,551.000000,,2013-02-28 22:52:00,
2013-02-28 16:21:00,34.0,5.0,-100.00,WNW,296,5.0,9.0,29,0.00,,,0.00,399.000000,,2013-02-28 23:21:00,
2013-02-28 16:31:00,34.0,5.0,-100.00,WNW,296,5.0,9.0,29,0.00,,,0.00,399.000000,,2013-02-28 23:31:00,
2013-02-28 16:41:00,34.0,5.0,-100.00,WNW,296,5.0,9.0,29,0.00,,,0.00,399.000000,,2013-02-28 23:41:00,
2013-02-28 16:52:00,34.0,5.0,-100.00,WNW,296,5.0,9.0,29,0.00,,,0.00,399.000000,,2013-02-28 23:52:00,
2013-02-28 17:22:00,35.0,5.0,-100.00,WNW,288,4.0,9.0,28,0.00,,,0.00,209.000000,,2013-03-01 00:22:00,
2013-02-28 17:32:00,35.0,5.0,-100.00,WNW,288,4.0,9.0,28,0.00,,,0.00,209.000000,,2013-03-01 00:32:00,
2013-02-28 17:41:00,35.0,5.0,-100.00,WNW,288,4.0,9.0,28,0.00,,,0.00,209.000000,,2013-03-01 00:41:00,
2013-02-28 17:51:00,35.0,5.0,-100.00,WNW,288,4.0,9.0,28,0.00,,,0.00,209.000000,,2013-03-01 00:51:00,
2013-02-28 18:21:00,28.0,4.0,-100.00,West,275,2.0,7.0,35,0.00,,,0.00,80.000000,,2013-03-01 01:21:00,
2013-02-28 18:31:00,28.0,4.0,-100.00,West,275,2.0,7.0,35,0.00,,,0.00,80.000000,,2013-03-01 01:31:00,
2013-02-28 18:42:00,28.0,4.0,-100.00,West,275,2.0,7.0,35,0.00,,,0.00,80.000000,,2013-03-01 01:42:00,
2013-02-28 18:51:00,28.0,4.0,-100.00,West,275,2.0,7.0,35,0.00,,,0.00,80.000000,,2013-03-01 01:51:00,
2013-02-28 19:21:00,21.0,3.0,-100.00,NW,309,0.0,7.0,44,0.00,,,0.00,3.000000,,2013-03-01 02:21:00,
2013-02-28 19:31:00,21.0,3.0,-100.00,NW,309,0.0,7.0,44,0.00,,,0.00,3.000000,,2013-03-01 02:31:00,
2013-02-28 19:42:00,21.0,3.0,-100.00,NW,309,0.0,7.0,44,0.00,,,0.00,3.000000,,2013-03-01 02:42:00,
2013-02-28 19:52:00,21.0,3.0,-100.00,NW,309,0.0,7.0,44,0.00,,,0.00,3.000000,,2013-03-01 02:52:00,
2013-02-28 20:11:00,19.0,3.0,-100.00,ESE,107,0.0,0.0,49,0.00,,,-99.99,1.000000,,2013-03-01 03:11:00,
2013-02-28 20:21:00,19.0,3.0,-100.00,ESE,107,0.0,0.0,49,0.00,,,-99.99,1.000000,,2013-03-01 03:21:00,
2013-02-28 20:32:00,19.0,3.0,-100.00,ESE,107,0.0,0.0,49,0.00,,,-99.99,1.000000,,2013-03-01 03:32:00,
2013-02-28 20:41:00,19.0,3.0,-100.00,ESE,107,0.0,0.0,49,0.00,,,-99.99,1.000000,,2013-03-01 03:41:00,
2013-02-28 20:51:00,19.0,3.0,-100.00,ESE,107,0.0,0.0,49,0.00,,,-99.99,1.000000,,2013-03-01 03:51:00,
2013-02-28 21:32:00,18.0,3.0,-100.00,ESE,120,0.0,4.0,50,0.00,,,0.00,1.000000,,2013-03-01 04:32:00,
2013-02-28 21:41:00,18.0,3.0,-100.00,ESE,120,0.0,4.0,50,0.00,,,0.00,1.000000,,2013-03-01 04:41:00,
2013-02-28 21:51:00,18.0,3.0,-100.00,ESE,120,0.0,4.0,50,0.00,,,0.00,1.000000,,2013-03-01 04:51:00,
2013-02-28 22:22:00,15.0,2.0,-100.00,ESE,106,0.0,0.0,56,0.00,,,0.00,1.000000,,2013-03-01 05:22:00,
2013-02-28 23:21:00,17.0,3.0,-100.00,NE,56,1.0,3.0,54,0.00,,,0.00,1.000000,,2013-03-01 06:21:00,
2013-02-28 23:32:00,17.0,3.0,-100.00,NE,56,1.0,3.0,54,0.00,,,0.00,1.000000,,2013-03-01 06:32:00,
2013-02-28 23:42:00,17.0,3.0,-100.00,NE,56,1.0,3.0,54,0.00,,,0.00,1.000000,,2013-03-01 06:42:00,
2013-02-28 23:52:00,17.0,3.0,-100.00,NE,56,1.0,3.0,54,0.00,,,0.00,1.000000,,2013-03-01 06:52:00,